sensor_id;sensor_type;location;lat;lon;timestamp;temperature;humidity
4433;DHT22;2229;48.708;9.706;2023-09-19T00:00:31;18.30;99.90
4433;DHT22;2229;48.708;9.706;2023-09-19T00:03:00;18.30;99.90
4433;DHT22;2229;48.708;9.706;2023-09-19T00:05:30;18.30;99.80
4433;DHT22;2229;48.708;9.706;2023-09-19T00:08:01;18.30;99.80
4433;DHT22;2229;48.708;9.706;2023-09-19T00:10:31;18.30;99.90
4433;DHT22;2229;48.708;9.706;2023-09-19T00:13:01;18.30;99.80
4433;DHT22;2229;48.708;9.706;2023-09-19T00:15:37;18.30;99.70
4433;DHT22;2229;48.708;9.706;2023-09-19T00:18:04;18.30;99.80
4433;DHT22;2229;48.708;9.706;2023-09-19T00:20:35;18.30;99.70
4433;DHT22;2229;48.708;9.706;2023-09-19T00:23:03;18.30;99.80
4433;DHT22;2229;48.708;9.706;2023-09-19T00:25:34;18.30;99.80
4433;DHT22;2229;48.708;9.706;2023-09-19T00:28:03;18.40;99.90
4433;DHT22;2229;48.708;9.706;2023-09-19T00:30:31;18.40;99.90
4433;DHT22;2229;48.708;9.706;2023-09-19T00:32:58;18.40;99.90
4433;DHT22;2229;48.708;9.706;2023-09-19T00:35:27;18.40;99.90
4433;DHT22;2229;48.708;9.706;2023-09-19T00:37:55;18.40;99.90
4433;DHT22;2229;48.708;9.706;2023-09-19T00:40:22;18.40;99.90
4433;DHT22;2229;48.708;9.706;2023-09-19T00:42:51;18.40;99.90
4433;DHT22;2229;48.708;9.706;2023-09-19T00:45:19;18.40;99.90
4433;DHT22;2229;48.708;9.706;2023-09-19T00:47:49;18.40;99.90
4433;DHT22;2229;48.708;9.706;2023-09-19T00:50:18;18.40;99.90
4433;DHT22;2229;48.708;9.706;2023-09-19T00:52:46;18.40;99.90
4433;DHT22;2229;48.708;9.706;2023-09-19T00:55:17;18.40;99.90
4433;DHT22;2229;48.708;9.706;2023-09-19T00:57:46;18.30;99.90
4433;DHT22;2229;48.708;9.706;2023-09-19T01:00:14;18.30;99.90
4433;DHT22;2229;48.708;9.706;2023-09-19T01:02:42;18.30;99.90
4433;DHT22;2229;48.708;9.706;2023-09-19T01:05:10;18.30;99.90
4433;DHT22;2229;48.708;9.706;2023-09-19T01:07:38;18.30;99.90
4433;DHT22;2229;48.708;9.706;2023-09-19T01:10:08;18.30;99.90
4433;DHT22;2229;48.708;9.706;2023-09-19T01:12:47;18.20;99.90
4433;DHT22;2229;48.708;9.706;2023-09-19T01:15:24;18.20;99.90
4433;DHT22;2229;48.708;9.706;2023-09-19T01:17:59;18.10;99.90
4433;DHT22;2229;48.708;9.706;2023-09-19T01:20:34;18.10;99.90
4433;DHT22;2229;48.708;9.706;2023-09-19T01:23:15;18.00;99.90
4433;DHT22;2229;48.708;9.706;2023-09-19T01:26:05;18.00;99.90
4433;DHT22;2229;48.708;9.706;2023-09-19T01:28:48;17.90;99.90
4433;DHT22;2229;48.708;9.706;2023-09-19T01:31:21;17.90;99.90
4433;DHT22;2229;48.708;9.706;2023-09-19T01:33:55;17.90;99.90
4433;DHT22;2229;48.708;9.706;2023-09-19T01:36:29;17.80;99.90
4433;DHT22;2229;48.708;9.706;2023-09-19T01:38:57;17.80;99.90
4433;DHT22;2229;48.708;9.706;2023-09-19T01:41:30;17.80;99.90
4433;DHT22;2229;48.708;9.706;2023-09-19T01:44:03;17.80;99.90
4433;DHT22;2229;48.708;9.706;2023-09-19T01:46:37;17.80;99.90
4433;DHT22;2229;48.708;9.706;2023-09-19T01:49:16;17.80;99.90
4433;DHT22;2229;48.708;9.706;2023-09-19T01:51:52;17.80;99.90
4433;DHT22;2229;48.708;9.706;2023-09-19T01:54:26;17.80;99.90
4433;DHT22;2229;48.708;9.706;2023-09-19T01:56:59;17.80;99.90
4433;DHT22;2229;48.708;9.706;2023-09-19T01:59:35;17.80;99.90
4433;DHT22;2229;48.708;9.706;2023-09-19T02:02:09;17.80;99.90
4433;DHT22;2229;48.708;9.706;2023-09-19T02:04:37;17.80;99.90
4433;DHT22;2229;48.708;9.706;2023-09-19T02:07:04;17.70;99.90
4433;DHT22;2229;48.708;9.706;2023-09-19T02:09:35;17.80;99.90
4433;DHT22;2229;48.708;9.706;2023-09-19T02:12:05;17.90;99.90
4433;DHT22;2229;48.708;9.706;2023-09-19T02:14:33;17.80;99.90
4433;DHT22;2229;48.708;9.706;2023-09-19T02:17:03;17.80;99.90
4433;DHT22;2229;48.708;9.706;2023-09-19T02:19:38;17.80;99.90
4433;DHT22;2229;48.708;9.706;2023-09-19T02:22:07;17.70;99.90
4433;DHT22;2229;48.708;9.706;2023-09-19T02:24:36;17.80;99.90
4433;DHT22;2229;48.708;9.706;2023-09-19T02:27:04;17.80;99.90
4433;DHT22;2229;48.708;9.706;2023-09-19T02:29:31;17.80;99.90
4433;DHT22;2229;48.708;9.706;2023-09-19T02:32:00;17.80;99.90
4433;DHT22;2229;48.708;9.706;2023-09-19T02:34:29;17.80;99.90
4433;DHT22;2229;48.708;9.706;2023-09-19T02:36:57;17.80;99.90
4433;DHT22;2229;48.708;9.706;2023-09-19T02:39:25;17.80;99.90
4433;DHT22;2229;48.708;9.706;2023-09-19T02:41:52;17.80;99.90
4433;DHT22;2229;48.708;9.706;2023-09-19T02:44:20;17.80;99.90
4433;DHT22;2229;48.708;9.706;2023-09-19T02:46:48;17.80;99.90
4433;DHT22;2229;48.708;9.706;2023-09-19T02:49:16;17.80;99.90
4433;DHT22;2229;48.708;9.706;2023-09-19T02:51:44;17.70;99.90
4433;DHT22;2229;48.708;9.706;2023-09-19T02:54:13;17.70;99.90
4433;DHT22;2229;48.708;9.706;2023-09-19T02:56:41;17.70;99.90
4433;DHT22;2229;48.708;9.706;2023-09-19T02:59:09;17.70;99.90
4433;DHT22;2229;48.708;9.706;2023-09-19T03:01:37;17.60;99.90
4433;DHT22;2229;48.708;9.706;2023-09-19T03:04:05;17.60;99.90
4433;DHT22;2229;48.708;9.706;2023-09-19T03:06:37;17.60;99.90
4433;DHT22;2229;48.708;9.706;2023-09-19T03:09:06;17.60;99.90
4433;DHT22;2229;48.708;9.706;2023-09-19T03:11:39;17.50;99.90
4433;DHT22;2229;48.708;9.706;2023-09-19T03:14:08;17.50;99.90
4433;DHT22;2229;48.708;9.706;2023-09-19T03:16:39;17.50;99.90
4433;DHT22;2229;48.708;9.706;2023-09-19T03:19:06;17.40;99.90
4433;DHT22;2229;48.708;9.706;2023-09-19T03:21:36;17.40;99.90
4433;DHT22;2229;48.708;9.706;2023-09-19T03:24:05;17.40;99.90
4433;DHT22;2229;48.708;9.706;2023-09-19T03:26:33;17.40;99.90
4433;DHT22;2229;48.708;9.706;2023-09-19T03:29:05;17.40;99.90
4433;DHT22;2229;48.708;9.706;2023-09-19T03:31:34;17.40;99.90
4433;DHT22;2229;48.708;9.706;2023-09-19T03:34:04;17.40;99.90
4433;DHT22;2229;48.708;9.706;2023-09-19T03:36:31;17.40;99.90
4433;DHT22;2229;48.708;9.706;2023-09-19T03:39:01;17.40;99.90
4433;DHT22;2229;48.708;9.706;2023-09-19T03:41:31;17.50;99.90
4433;DHT22;2229;48.708;9.706;2023-09-19T03:43:59;17.50;99.90
4433;DHT22;2229;48.708;9.706;2023-09-19T03:46:28;17.50;99.90
4433;DHT22;2229;48.708;9.706;2023-09-19T03:48:56;17.50;99.90
4433;DHT22;2229;48.708;9.706;2023-09-19T03:51:23;17.60;99.90
4433;DHT22;2229;48.708;9.706;2023-09-19T03:53:50;17.60;99.90
4433;DHT22;2229;48.708;9.706;2023-09-19T03:56:17;17.60;99.90
4433;DHT22;2229;48.708;9.706;2023-09-19T03:58:45;17.60;99.90
4433;DHT22;2229;48.708;9.706;2023-09-19T04:01:12;17.50;99.90
4433;DHT22;2229;48.708;9.706;2023-09-19T04:03:41;17.50;99.90
4433;DHT22;2229;48.708;9.706;2023-09-19T04:06:14;17.60;99.90
4433;DHT22;2229;48.708;9.706;2023-09-19T04:08:41;17.60;99.90
4433;DHT22;2229;48.708;9.706;2023-09-19T04:11:11;17.60;99.90
4433;DHT22;2229;48.708;9.706;2023-09-19T04:13:39;17.60;99.90
4433;DHT22;2229;48.708;9.706;2023-09-19T04:16:06;17.70;99.90
4433;DHT22;2229;48.708;9.706;2023-09-19T04:18:33;17.70;99.90
4433;DHT22;2229;48.708;9.706;2023-09-19T04:21:05;17.70;99.90
4433;DHT22;2229;48.708;9.706;2023-09-19T04:23:33;17.70;99.90
4433;DHT22;2229;48.708;9.706;2023-09-19T04:26:00;17.70;99.90
4433;DHT22;2229;48.708;9.706;2023-09-19T04:28:29;17.70;99.90
4433;DHT22;2229;48.708;9.706;2023-09-19T04:30:57;17.70;99.90
4433;DHT22;2229;48.708;9.706;2023-09-19T04:33:25;17.70;99.90
4433;DHT22;2229;48.708;9.706;2023-09-19T04:35:53;17.70;99.90
4433;DHT22;2229;48.708;9.706;2023-09-19T04:38:22;17.70;99.90
4433;DHT22;2229;48.708;9.706;2023-09-19T04:40:49;17.70;99.90
4433;DHT22;2229;48.708;9.706;2023-09-19T04:43:16;17.60;99.90
4433;DHT22;2229;48.708;9.706;2023-09-19T04:45:44;17.60;99.90
4433;DHT22;2229;48.708;9.706;2023-09-19T04:48:12;17.60;99.90
4433;DHT22;2229;48.708;9.706;2023-09-19T04:50:41;17.60;99.90
4433;DHT22;2229;48.708;9.706;2023-09-19T04:53:09;17.50;99.90
4433;DHT22;2229;48.708;9.706;2023-09-19T04:55:38;17.50;99.90
4433;DHT22;2229;48.708;9.706;2023-09-19T04:58:05;17.50;99.90
4433;DHT22;2229;48.708;9.706;2023-09-19T05:00:32;17.60;99.90
4433;DHT22;2229;48.708;9.706;2023-09-19T05:03:01;17.50;99.90
4433;DHT22;2229;48.708;9.706;2023-09-19T05:05:30;17.50;99.90
4433;DHT22;2229;48.708;9.706;2023-09-19T05:07:57;17.50;99.90
4433;DHT22;2229;48.708;9.706;2023-09-19T05:10:26;17.50;99.90
4433;DHT22;2229;48.708;9.706;2023-09-19T05:12:55;17.40;99.90
4433;DHT22;2229;48.708;9.706;2023-09-19T05:15:23;17.50;99.90
4433;DHT22;2229;48.708;9.706;2023-09-19T05:17:51;17.40;99.90
4433;DHT22;2229;48.708;9.706;2023-09-19T05:20:20;17.40;99.90
4433;DHT22;2229;48.708;9.706;2023-09-19T05:23:01;17.50;99.90
4433;DHT22;2229;48.708;9.706;2023-09-19T05:25:29;17.50;99.90
4433;DHT22;2229;48.708;9.706;2023-09-19T05:27:59;17.50;99.90
4433;DHT22;2229;48.708;9.706;2023-09-19T05:30:29;17.40;99.90
4433;DHT22;2229;48.708;9.706;2023-09-19T05:32:58;17.50;99.90
4433;DHT22;2229;48.708;9.706;2023-09-19T05:35:27;17.50;99.90
4433;DHT22;2229;48.708;9.706;2023-09-19T05:37:55;17.50;99.90
4433;DHT22;2229;48.708;9.706;2023-09-19T05:40:24;17.50;99.90
4433;DHT22;2229;48.708;9.706;2023-09-19T05:42:52;17.50;99.90
4433;DHT22;2229;48.708;9.706;2023-09-19T05:45:20;17.60;99.90
4433;DHT22;2229;48.708;9.706;2023-09-19T05:47:49;17.60;99.90
4433;DHT22;2229;48.708;9.706;2023-09-19T05:50:17;17.70;99.90
4433;DHT22;2229;48.708;9.706;2023-09-19T05:52:52;17.70;99.90
4433;DHT22;2229;48.708;9.706;2023-09-19T05:55:19;17.70;99.90
4433;DHT22;2229;48.708;9.706;2023-09-19T05:57:50;17.80;99.90
4433;DHT22;2229;48.708;9.706;2023-09-19T06:00:21;17.90;99.90
4433;DHT22;2229;48.708;9.706;2023-09-19T06:02:53;17.90;99.90
4433;DHT22;2229;48.708;9.706;2023-09-19T06:05:24;17.90;99.90
4433;DHT22;2229;48.708;9.706;2023-09-19T06:07:53;17.90;99.90
4433;DHT22;2229;48.708;9.706;2023-09-19T06:10:20;17.80;99.90
4433;DHT22;2229;48.708;9.706;2023-09-19T06:12:50;17.80;99.90
4433;DHT22;2229;48.708;9.706;2023-09-19T06:15:20;17.70;99.90
4433;DHT22;2229;48.708;9.706;2023-09-19T06:17:52;17.60;99.90
4433;DHT22;2229;48.708;9.706;2023-09-19T06:20:21;17.50;99.90
4433;DHT22;2229;48.708;9.706;2023-09-19T06:22:49;17.50;99.90
4433;DHT22;2229;48.708;9.706;2023-09-19T06:25:19;17.40;99.90
4433;DHT22;2229;48.708;9.706;2023-09-19T06:27:47;17.30;99.90
4433;DHT22;2229;48.708;9.706;2023-09-19T06:30:15;17.30;99.90
4433;DHT22;2229;48.708;9.706;2023-09-19T06:32:44;17.30;99.90
4433;DHT22;2229;48.708;9.706;2023-09-19T06:35:12;17.30;99.90
4433;DHT22;2229;48.708;9.706;2023-09-19T06:37:41;17.40;99.90
4433;DHT22;2229;48.708;9.706;2023-09-19T06:40:09;17.40;99.90
4433;DHT22;2229;48.708;9.706;2023-09-19T06:42:40;17.40;99.90
4433;DHT22;2229;48.708;9.706;2023-09-19T06:45:08;17.50;99.90
4433;DHT22;2229;48.708;9.706;2023-09-19T06:47:38;17.50;99.90
4433;DHT22;2229;48.708;9.706;2023-09-19T06:50:07;17.50;99.90
4433;DHT22;2229;48.708;9.706;2023-09-19T06:52:39;17.50;99.90
4433;DHT22;2229;48.708;9.706;2023-09-19T06:55:07;17.50;99.90
4433;DHT22;2229;48.708;9.706;2023-09-19T06:57:35;17.40;99.90
4433;DHT22;2229;48.708;9.706;2023-09-19T07:00:04;17.40;99.90
4433;DHT22;2229;48.708;9.706;2023-09-19T07:02:35;17.40;99.90
4433;DHT22;2229;48.708;9.706;2023-09-19T07:05:02;17.30;99.90
4433;DHT22;2229;48.708;9.706;2023-09-19T07:07:32;17.20;99.90
4433;DHT22;2229;48.708;9.706;2023-09-19T07:10:00;17.10;99.90
4433;DHT22;2229;48.708;9.706;2023-09-19T07:12:28;17.10;99.90
4433;DHT22;2229;48.708;9.706;2023-09-19T07:14:55;17.00;99.90
4433;DHT22;2229;48.708;9.706;2023-09-19T07:17:22;17.00;99.90
4433;DHT22;2229;48.708;9.706;2023-09-19T07:19:50;16.90;99.90
4433;DHT22;2229;48.708;9.706;2023-09-19T07:22:18;16.90;99.90
4433;DHT22;2229;48.708;9.706;2023-09-19T07:24:47;16.90;99.90
4433;DHT22;2229;48.708;9.706;2023-09-19T07:27:14;16.90;99.90
4433;DHT22;2229;48.708;9.706;2023-09-19T07:29:42;16.80;99.90
4433;DHT22;2229;48.708;9.706;2023-09-19T07:32:11;16.90;99.90
4433;DHT22;2229;48.708;9.706;2023-09-19T07:34:39;16.80;99.90
4433;DHT22;2229;48.708;9.706;2023-09-19T07:37:07;16.90;99.90
4433;DHT22;2229;48.708;9.706;2023-09-19T07:39:35;16.90;99.90
4433;DHT22;2229;48.708;9.706;2023-09-19T07:42:04;17.00;99.90
4433;DHT22;2229;48.708;9.706;2023-09-19T07:44:34;17.10;99.90
4433;DHT22;2229;48.708;9.706;2023-09-19T07:47:01;17.30;99.90
4433;DHT22;2229;48.708;9.706;2023-09-19T07:49:29;17.40;99.90
4433;DHT22;2229;48.708;9.706;2023-09-19T07:51:56;17.60;99.90
4433;DHT22;2229;48.708;9.706;2023-09-19T07:54:25;17.80;99.90
4433;DHT22;2229;48.708;9.706;2023-09-19T07:56:56;17.90;99.90
4433;DHT22;2229;48.708;9.706;2023-09-19T07:59:25;18.00;99.90
4433;DHT22;2229;48.708;9.706;2023-09-19T08:01:52;18.00;99.90
4433;DHT22;2229;48.708;9.706;2023-09-19T08:04:20;18.00;99.90
4433;DHT22;2229;48.708;9.706;2023-09-19T08:06:47;17.90;99.90
4433;DHT22;2229;48.708;9.706;2023-09-19T08:09:17;17.90;99.90
4433;DHT22;2229;48.708;9.706;2023-09-19T08:11:46;17.90;99.90
4433;DHT22;2229;48.708;9.706;2023-09-19T08:14:14;17.90;99.90
4433;DHT22;2229;48.708;9.706;2023-09-19T08:16:42;17.80;99.90
4433;DHT22;2229;48.708;9.706;2023-09-19T08:19:10;17.80;99.90
4433;DHT22;2229;48.708;9.706;2023-09-19T08:21:37;17.80;99.90
4433;DHT22;2229;48.708;9.706;2023-09-19T08:24:04;17.80;99.90
4433;DHT22;2229;48.708;9.706;2023-09-19T08:26:32;17.90;99.90
4433;DHT22;2229;48.708;9.706;2023-09-19T08:28:59;18.20;99.90
4433;DHT22;2229;48.708;9.706;2023-09-19T08:31:30;18.50;99.90
4433;DHT22;2229;48.708;9.706;2023-09-19T08:33:59;18.80;99.90
4433;DHT22;2229;48.708;9.706;2023-09-19T08:36:26;19.00;99.90
4433;DHT22;2229;48.708;9.706;2023-09-19T08:38:53;19.30;99.90
4433;DHT22;2229;48.708;9.706;2023-09-19T08:41:21;19.50;99.90
4433;DHT22;2229;48.708;9.706;2023-09-19T08:43:51;19.70;99.90
4433;DHT22;2229;48.708;9.706;2023-09-19T08:46:20;19.80;99.90
4433;DHT22;2229;48.708;9.706;2023-09-19T08:48:54;19.80;99.90
4433;DHT22;2229;48.708;9.706;2023-09-19T08:51:33;19.70;99.90
4433;DHT22;2229;48.708;9.706;2023-09-19T08:54:04;19.60;99.90
4433;DHT22;2229;48.708;9.706;2023-09-19T08:56:36;19.50;99.90
4433;DHT22;2229;48.708;9.706;2023-09-19T08:59:06;19.40;99.90
4433;DHT22;2229;48.708;9.706;2023-09-19T09:01:34;19.40;99.90
4433;DHT22;2229;48.708;9.706;2023-09-19T09:04:04;19.30;99.90
4433;DHT22;2229;48.708;9.706;2023-09-19T09:06:36;19.20;99.90
4433;DHT22;2229;48.708;9.706;2023-09-19T09:09:05;19.30;99.90
4433;DHT22;2229;48.708;9.706;2023-09-19T09:11:33;19.50;99.90
4433;DHT22;2229;48.708;9.706;2023-09-19T09:14:10;19.60;99.90
4433;DHT22;2229;48.708;9.706;2023-09-19T09:16:38;19.70;99.90
4433;DHT22;2229;48.708;9.706;2023-09-19T09:19:08;19.70;99.90
4433;DHT22;2229;48.708;9.706;2023-09-19T09:21:38;19.60;99.90
4433;DHT22;2229;48.708;9.706;2023-09-19T09:24:26;19.60;99.90
4433;DHT22;2229;48.708;9.706;2023-09-19T09:26:54;19.50;99.90
4433;DHT22;2229;48.708;9.706;2023-09-19T09:29:43;19.50;99.90
4433;DHT22;2229;48.708;9.706;2023-09-19T09:32:20;19.40;99.90
4433;DHT22;2229;48.708;9.706;2023-09-19T09:34:50;19.40;99.90
4433;DHT22;2229;48.708;9.706;2023-09-19T09:37:21;19.30;99.90
4433;DHT22;2229;48.708;9.706;2023-09-19T09:39:52;19.30;99.90
4433;DHT22;2229;48.708;9.706;2023-09-19T09:42:32;19.30;99.90
4433;DHT22;2229;48.708;9.706;2023-09-19T09:45:15;19.30;99.90
4433;DHT22;2229;48.708;9.706;2023-09-19T09:47:44;19.40;99.90
4433;DHT22;2229;48.708;9.706;2023-09-19T09:50:29;19.40;99.90
4433;DHT22;2229;48.708;9.706;2023-09-19T09:53:21;19.40;99.90
4433;DHT22;2229;48.708;9.706;2023-09-19T09:56:01;19.40;99.90
4433;DHT22;2229;48.708;9.706;2023-09-19T09:58:32;19.40;99.90
4433;DHT22;2229;48.708;9.706;2023-09-19T10:01:01;19.50;99.90
4433;DHT22;2229;48.708;9.706;2023-09-19T10:03:36;19.50;99.90
4433;DHT22;2229;48.708;9.706;2023-09-19T10:06:07;19.60;99.90
4433;DHT22;2229;48.708;9.706;2023-09-19T10:09:06;19.60;99.90
4433;DHT22;2229;48.708;9.706;2023-09-19T10:11:43;19.60;99.90
4433;DHT22;2229;48.708;9.706;2023-09-19T10:14:12;19.60;99.50
4433;DHT22;2229;48.708;9.706;2023-09-19T10:16:44;19.60;98.90
4433;DHT22;2229;48.708;9.706;2023-09-19T10:19:23;19.70;99.10
4433;DHT22;2229;48.708;9.706;2023-09-19T10:21:54;19.80;98.90
4433;DHT22;2229;48.708;9.706;2023-09-19T10:24:26;20.10;99.00
4433;DHT22;2229;48.708;9.706;2023-09-19T10:26:59;20.30;98.20
4433;DHT22;2229;48.708;9.706;2023-09-19T10:29:28;20.40;97.70
4433;DHT22;2229;48.708;9.706;2023-09-19T10:31:58;20.50;97.10
4433;DHT22;2229;48.708;9.706;2023-09-19T10:34:28;20.70;96.80
4433;DHT22;2229;48.708;9.706;2023-09-19T10:36:58;20.80;96.90
4433;DHT22;2229;48.708;9.706;2023-09-19T10:39:33;20.80;96.50
4433;DHT22;2229;48.708;9.706;2023-09-19T10:42:02;20.90;96.10
4433;DHT22;2229;48.708;9.706;2023-09-19T10:44:32;21.00;95.80
4433;DHT22;2229;48.708;9.706;2023-09-19T10:47:03;21.10;95.20
4433;DHT22;2229;48.708;9.706;2023-09-19T10:49:33;21.20;94.00
4433;DHT22;2229;48.708;9.706;2023-09-19T10:52:01;21.10;93.80
4433;DHT22;2229;48.708;9.706;2023-09-19T10:54:34;21.00;93.20
4433;DHT22;2229;48.708;9.706;2023-09-19T10:57:03;20.90;93.30
4433;DHT22;2229;48.708;9.706;2023-09-19T10:59:35;20.80;92.90
4433;DHT22;2229;48.708;9.706;2023-09-19T11:02:16;20.70;92.40
4433;DHT22;2229;48.708;9.706;2023-09-19T11:04:44;20.60;92.20
4433;DHT22;2229;48.708;9.706;2023-09-19T11:07:16;20.60;92.40
4433;DHT22;2229;48.708;9.706;2023-09-19T11:09:46;20.70;92.50
4433;DHT22;2229;48.708;9.706;2023-09-19T11:12:48;20.80;92.50
4433;DHT22;2229;48.708;9.706;2023-09-19T11:18:52;21.20;92.10
4433;DHT22;2229;48.708;9.706;2023-09-19T11:21:52;21.40;91.30
4433;DHT22;2229;48.708;9.706;2023-09-19T11:24:32;21.60;91.00
4433;DHT22;2229;48.708;9.706;2023-09-19T11:27:14;21.70;90.90
4433;DHT22;2229;48.708;9.706;2023-09-19T11:29:40;21.80;90.10
4433;DHT22;2229;48.708;9.706;2023-09-19T11:32:07;21.80;90.10
4433;DHT22;2229;48.708;9.706;2023-09-19T11:34:53;21.80;90.00
4433;DHT22;2229;48.708;9.706;2023-09-19T11:38:04;21.90;89.50
4433;DHT22;2229;48.708;9.706;2023-09-19T11:40:36;21.90;86.80
4433;DHT22;2229;48.708;9.706;2023-09-19T11:43:32;21.80;84.90
4433;DHT22;2229;48.708;9.706;2023-09-19T11:46:06;21.80;84.80
4433;DHT22;2229;48.708;9.706;2023-09-19T11:48:34;21.70;85.40
4433;DHT22;2229;48.708;9.706;2023-09-19T11:51:20;21.60;85.30
4433;DHT22;2229;48.708;9.706;2023-09-19T11:53:53;21.60;85.10
4433;DHT22;2229;48.708;9.706;2023-09-19T11:56:21;21.60;85.90
4433;DHT22;2229;48.708;9.706;2023-09-19T11:58:53;21.70;85.20
4433;DHT22;2229;48.708;9.706;2023-09-19T12:01:26;21.70;85.40
4433;DHT22;2229;48.708;9.706;2023-09-19T12:03:55;21.80;85.20
4433;DHT22;2229;48.708;9.706;2023-09-19T12:06:25;22.00;84.80
4433;DHT22;2229;48.708;9.706;2023-09-19T12:08:53;22.00;84.00
4433;DHT22;2229;48.708;9.706;2023-09-19T12:11:22;22.10;83.80
4433;DHT22;2229;48.708;9.706;2023-09-19T12:13:51;22.20;82.80
4433;DHT22;2229;48.708;9.706;2023-09-19T12:16:20;22.30;82.80
4433;DHT22;2229;48.708;9.706;2023-09-19T12:18:49;22.30;81.40
4433;DHT22;2229;48.708;9.706;2023-09-19T12:21:28;22.40;81.10
4433;DHT22;2229;48.708;9.706;2023-09-19T12:23:58;22.40;80.10
4433;DHT22;2229;48.708;9.706;2023-09-19T12:26:27;22.50;80.30
4433;DHT22;2229;48.708;9.706;2023-09-19T12:28:56;22.60;80.50
4433;DHT22;2229;48.708;9.706;2023-09-19T12:31:25;22.60;80.30
4433;DHT22;2229;48.708;9.706;2023-09-19T12:33:55;22.70;80.20
4433;DHT22;2229;48.708;9.706;2023-09-19T12:36:24;22.70;80.30
4433;DHT22;2229;48.708;9.706;2023-09-19T12:38:56;22.70;80.00
4433;DHT22;2229;48.708;9.706;2023-09-19T12:41:25;22.70;80.30
4433;DHT22;2229;48.708;9.706;2023-09-19T12:43:52;22.70;79.90
4433;DHT22;2229;48.708;9.706;2023-09-19T12:46:22;22.70;80.10
4433;DHT22;2229;48.708;9.706;2023-09-19T12:49:18;22.70;79.90
4433;DHT22;2229;48.708;9.706;2023-09-19T12:51:46;22.70;79.70
4433;DHT22;2229;48.708;9.706;2023-09-19T12:54:14;22.90;80.40
4433;DHT22;2229;48.708;9.706;2023-09-19T12:56:43;23.00;80.20
4433;DHT22;2229;48.708;9.706;2023-09-19T12:59:12;23.10;79.30
4433;DHT22;2229;48.708;9.706;2023-09-19T13:01:44;23.20;79.40
4433;DHT22;2229;48.708;9.706;2023-09-19T13:04:15;23.30;79.70
4433;DHT22;2229;48.708;9.706;2023-09-19T13:06:44;23.50;79.10
4433;DHT22;2229;48.708;9.706;2023-09-19T13:09:11;23.50;78.50
4433;DHT22;2229;48.708;9.706;2023-09-19T13:11:41;23.60;77.40
4433;DHT22;2229;48.708;9.706;2023-09-19T13:14:15;23.60;77.50
4433;DHT22;2229;48.708;9.706;2023-09-19T13:17:01;23.70;78.00
4433;DHT22;2229;48.708;9.706;2023-09-19T13:19:41;23.70;77.20
4433;DHT22;2229;48.708;9.706;2023-09-19T13:22:36;23.80;76.90
4433;DHT22;2229;48.708;9.706;2023-09-19T13:25:06;23.80;76.30
4433;DHT22;2229;48.708;9.706;2023-09-19T13:27:34;23.80;76.50
4433;DHT22;2229;48.708;9.706;2023-09-19T13:30:01;23.70;76.50
4433;DHT22;2229;48.708;9.706;2023-09-19T13:32:31;23.70;75.70
4433;DHT22;2229;48.708;9.706;2023-09-19T13:34:58;23.80;75.60
4433;DHT22;2229;48.708;9.706;2023-09-19T13:37:25;23.80;75.80
4433;DHT22;2229;48.708;9.706;2023-09-19T13:39:53;23.80;76.20
4433;DHT22;2229;48.708;9.706;2023-09-19T13:42:20;23.90;75.80
4433;DHT22;2229;48.708;9.706;2023-09-19T13:44:48;24.00;75.20
4433;DHT22;2229;48.708;9.706;2023-09-19T13:47:15;24.00;74.90
4433;DHT22;2229;48.708;9.706;2023-09-19T13:49:46;24.10;74.60
4433;DHT22;2229;48.708;9.706;2023-09-19T13:52:17;24.10;74.00
4433;DHT22;2229;48.708;9.706;2023-09-19T13:54:44;24.10;73.40
4433;DHT22;2229;48.708;9.706;2023-09-19T13:57:11;24.10;73.50
4433;DHT22;2229;48.708;9.706;2023-09-19T13:59:38;24.10;73.50
4433;DHT22;2229;48.708;9.706;2023-09-19T14:02:05;24.10;72.50
4433;DHT22;2229;48.708;9.706;2023-09-19T14:04:33;24.10;72.40
4433;DHT22;2229;48.708;9.706;2023-09-19T14:07:03;24.00;72.20
4433;DHT22;2229;48.708;9.706;2023-09-19T14:09:30;24.00;73.40
4433;DHT22;2229;48.708;9.706;2023-09-19T14:11:57;23.90;73.20
4433;DHT22;2229;48.708;9.706;2023-09-19T14:14:25;23.80;73.00
4433;DHT22;2229;48.708;9.706;2023-09-19T14:16:52;23.80;73.30
4433;DHT22;2229;48.708;9.706;2023-09-19T14:19:20;23.80;73.40
4433;DHT22;2229;48.708;9.706;2023-09-19T14:21:47;23.80;73.70
4433;DHT22;2229;48.708;9.706;2023-09-19T14:24:18;23.90;74.20
4433;DHT22;2229;48.708;9.706;2023-09-19T14:26:45;23.90;73.70
4433;DHT22;2229;48.708;9.706;2023-09-19T14:29:12;24.00;73.40
4433;DHT22;2229;48.708;9.706;2023-09-19T14:31:40;24.00;73.70
4433;DHT22;2229;48.708;9.706;2023-09-19T14:34:08;24.10;74.30
4433;DHT22;2229;48.708;9.706;2023-09-19T14:36:36;24.20;73.40
4433;DHT22;2229;48.708;9.706;2023-09-19T14:39:04;24.20;73.50
4433;DHT22;2229;48.708;9.706;2023-09-19T14:41:33;24.20;73.50
4433;DHT22;2229;48.708;9.706;2023-09-19T14:44:02;24.20;73.80
4433;DHT22;2229;48.708;9.706;2023-09-19T14:46:31;24.30;73.60
4433;DHT22;2229;48.708;9.706;2023-09-19T14:48:58;24.40;73.50
4433;DHT22;2229;48.708;9.706;2023-09-19T14:51:29;24.40;73.20
4433;DHT22;2229;48.708;9.706;2023-09-19T14:53:57;24.40;72.10
4433;DHT22;2229;48.708;9.706;2023-09-19T14:56:24;24.40;72.30
4433;DHT22;2229;48.708;9.706;2023-09-19T14:58:53;24.30;71.60
4433;DHT22;2229;48.708;9.706;2023-09-19T15:01:21;24.20;71.80
4433;DHT22;2229;48.708;9.706;2023-09-19T15:03:49;24.10;71.80
4433;DHT22;2229;48.708;9.706;2023-09-19T15:06:16;24.10;71.60
4433;DHT22;2229;48.708;9.706;2023-09-19T15:08:47;24.00;71.30
4433;DHT22;2229;48.708;9.706;2023-09-19T15:11:16;24.00;70.50
4433;DHT22;2229;48.708;9.706;2023-09-19T15:13:45;24.00;71.10
4433;DHT22;2229;48.708;9.706;2023-09-19T15:16:14;23.90;72.00
4433;DHT22;2229;48.708;9.706;2023-09-19T15:18:44;24.00;70.90
4433;DHT22;2229;48.708;9.706;2023-09-19T15:21:14;24.00;71.30
4433;DHT22;2229;48.708;9.706;2023-09-19T15:23:42;24.00;71.60
4433;DHT22;2229;48.708;9.706;2023-09-19T15:26:13;24.00;71.60
4433;DHT22;2229;48.708;9.706;2023-09-19T15:28:43;24.00;71.40
4433;DHT22;2229;48.708;9.706;2023-09-19T15:31:11;24.00;72.40
4433;DHT22;2229;48.708;9.706;2023-09-19T15:33:40;24.00;71.50
4433;DHT22;2229;48.708;9.706;2023-09-19T15:36:09;23.90;70.90
4433;DHT22;2229;48.708;9.706;2023-09-19T15:39:06;23.90;70.60
4433;DHT22;2229;48.708;9.706;2023-09-19T15:41:38;23.80;70.10
4433;DHT22;2229;48.708;9.706;2023-09-19T15:44:11;23.70;70.00
4433;DHT22;2229;48.708;9.706;2023-09-19T15:46:38;23.70;70.00
4433;DHT22;2229;48.708;9.706;2023-09-19T15:49:08;23.60;70.20
4433;DHT22;2229;48.708;9.706;2023-09-19T15:51:35;23.60;70.40
4433;DHT22;2229;48.708;9.706;2023-09-19T15:54:08;23.50;70.20
4433;DHT22;2229;48.708;9.706;2023-09-19T15:56:35;23.50;70.60
4433;DHT22;2229;48.708;9.706;2023-09-19T15:59:03;23.40;70.40
4433;DHT22;2229;48.708;9.706;2023-09-19T16:01:30;23.30;70.00
4433;DHT22;2229;48.708;9.706;2023-09-19T16:03:58;23.30;70.00
4433;DHT22;2229;48.708;9.706;2023-09-19T16:06:27;23.20;69.70
4433;DHT22;2229;48.708;9.706;2023-09-19T16:08:55;23.20;69.70
4433;DHT22;2229;48.708;9.706;2023-09-19T16:11:24;23.10;69.70
4433;DHT22;2229;48.708;9.706;2023-09-19T16:13:52;23.10;70.00
4433;DHT22;2229;48.708;9.706;2023-09-19T16:16:20;23.00;69.80
4433;DHT22;2229;48.708;9.706;2023-09-19T16:18:50;23.00;70.50
4433;DHT22;2229;48.708;9.706;2023-09-19T16:21:18;22.90;70.20
4433;DHT22;2229;48.708;9.706;2023-09-19T16:23:48;22.90;70.20
4433;DHT22;2229;48.708;9.706;2023-09-19T16:26:17;22.90;70.00